sensor_id;sensor_type;location;lat;lon;timestamp;P1;durP1;ratioP1;P2;durP2;ratioP2
44564;SDS011;30275;51.822;-0.326;2022-11-03T00:00:07;3.63;;;1.80;;
44564;SDS011;30275;51.822;-0.326;2022-11-03T00:02:34;2.88;;;1.40;;
44564;SDS011;30275;51.822;-0.326;2022-11-03T00:05:00;5.50;;;1.30;;
44564;SDS011;30275;51.822;-0.326;2022-11-03T00:07:45;4.72;;;1.40;;
44564;SDS011;30275;51.822;-0.326;2022-11-03T00:10:11;6.07;;;1.10;;
44564;SDS011;30275;51.822;-0.326;2022-11-03T00:12:37;6.75;;;2.10;;
44564;SDS011;30275;51.822;-0.326;2022-11-03T00:15:03;5.45;;;1.40;;
44564;SDS011;30275;51.822;-0.326;2022-11-03T00:17:28;6.70;;;1.52;;
44564;SDS011;30275;51.822;-0.326;2022-11-03T00:19:54;2.85;;;1.30;;
44564;SDS011;30275;51.822;-0.326;2022-11-03T00:22:20;7.10;;;1.58;;
44564;SDS011;30275;51.822;-0.326;2022-11-03T00:24:45;3.25;;;1.13;;
44564;SDS011;30275;51.822;-0.326;2022-11-03T00:27:11;5.60;;;1.25;;
44564;SDS011;30275;51.822;-0.326;2022-11-03T00:29:36;3.20;;;1.50;;
44564;SDS011;30275;51.822;-0.326;2022-11-03T00:32:02;5.50;;;1.73;;
44564;SDS011;30275;51.822;-0.326;2022-11-03T00:34:28;6.05;;;1.67;;
44564;SDS011;30275;51.822;-0.326;2022-11-03T00:36:53;5.72;;;1.05;;
44564;SDS011;30275;51.822;-0.326;2022-11-03T00:39:19;5.00;;;1.20;;
44564;SDS011;30275;51.822;-0.326;2022-11-03T00:41:45;8.98;;;1.80;;
44564;SDS011;30275;51.822;-0.326;2022-11-03T00:44:10;3.88;;;1.98;;
44564;SDS011;30275;51.822;-0.326;2022-11-03T00:46:37;6.38;;;1.90;;
44564;SDS011;30275;51.822;-0.326;2022-11-03T00:49:03;5.68;;;1.48;;
44564;SDS011;30275;51.822;-0.326;2022-11-03T00:51:29;7.85;;;1.88;;
44564;SDS011;30275;51.822;-0.326;2022-11-03T00:53:59;8.20;;;1.70;;
44564;SDS011;30275;51.822;-0.326;2022-11-03T00:56:26;6.63;;;2.17;;
44564;SDS011;30275;51.822;-0.326;2022-11-03T00:58:54;3.03;;;1.40;;
44564;SDS011;30275;51.822;-0.326;2022-11-03T01:01:21;4.05;;;2.00;;
44564;SDS011;30275;51.822;-0.326;2022-11-03T01:03:52;6.40;;;2.28;;
44564;SDS011;30275;51.822;-0.326;2022-11-03T01:06:39;4.72;;;1.50;;
44564;SDS011;30275;51.822;-0.326;2022-11-03T01:09:28;9.55;;;2.50;;
44564;SDS011;30275;51.822;-0.326;2022-11-03T01:14:42;8.18;;;1.80;;
44564;SDS011;30275;51.822;-0.326;2022-11-03T01:17:11;11.55;;;1.80;;
44564;SDS011;30275;51.822;-0.326;2022-11-03T01:19:41;4.45;;;2.15;;
44564;SDS011;30275;51.822;-0.326;2022-11-03T01:22:07;3.95;;;1.65;;
44564;SDS011;30275;51.822;-0.326;2022-11-03T01:24:33;6.18;;;1.33;;
44564;SDS011;30275;51.822;-0.326;2022-11-03T01:26:59;7.70;;;2.28;;
44564;SDS011;30275;51.822;-0.326;2022-11-03T01:29:25;11.98;;;1.85;;
44564;SDS011;30275;51.822;-0.326;2022-11-03T01:31:51;6.55;;;1.60;;
44564;SDS011;30275;51.822;-0.326;2022-11-03T01:34:18;4.85;;;1.38;;
44564;SDS011;30275;51.822;-0.326;2022-11-03T01:36:45;4.50;;;1.25;;
44564;SDS011;30275;51.822;-0.326;2022-11-03T01:39:12;6.57;;;1.65;;
44564;SDS011;30275;51.822;-0.326;2022-11-03T01:41:39;7.68;;;2.25;;
44564;SDS011;30275;51.822;-0.326;2022-11-03T01:46:31;6.82;;;2.03;;
44564;SDS011;30275;51.822;-0.326;2022-11-03T01:49:08;6.63;;;2.33;;
44564;SDS011;30275;51.822;-0.326;2022-11-03T01:51:41;8.13;;;2.40;;
44564;SDS011;30275;51.822;-0.326;2022-11-03T01:54:11;10.18;;;3.35;;
44564;SDS011;30275;51.822;-0.326;2022-11-03T01:56:40;5.70;;;1.60;;
44564;SDS011;30275;51.822;-0.326;2022-11-03T01:59:11;8.90;;;2.72;;
44564;SDS011;30275;51.822;-0.326;2022-11-03T02:01:39;9.55;;;2.38;;
44564;SDS011;30275;51.822;-0.326;2022-11-03T02:04:09;9.10;;;2.40;;
44564;SDS011;30275;51.822;-0.326;2022-11-03T02:06:58;8.80;;;2.40;;
44564;SDS011;30275;51.822;-0.326;2022-11-03T02:09:33;8.77;;;2.50;;
44564;SDS011;30275;51.822;-0.326;2022-11-03T02:11:58;7.50;;;2.20;;
44564;SDS011;30275;51.822;-0.326;2022-11-03T02:14:30;10.95;;;2.40;;
44564;SDS011;30275;51.822;-0.326;2022-11-03T02:16:57;8.50;;;2.35;;
44564;SDS011;30275;51.822;-0.326;2022-11-03T02:19:32;9.07;;;2.70;;
44564;SDS011;30275;51.822;-0.326;2022-11-03T02:27:46;9.07;;;2.13;;
44564;SDS011;30275;51.822;-0.326;2022-11-03T02:30:12;12.23;;;2.53;;
44564;SDS011;30275;51.822;-0.326;2022-11-03T02:32:46;11.07;;;3.10;;
44564;SDS011;30275;51.822;-0.326;2022-11-03T02:35:26;7.00;;;1.98;;
44564;SDS011;30275;51.822;-0.326;2022-11-03T02:38:08;10.85;;;3.20;;
44564;SDS011;30275;51.822;-0.326;2022-11-03T02:40:40;12.70;;;2.45;;
44564;SDS011;30275;51.822;-0.326;2022-11-03T02:43:10;13.10;;;2.73;;
44564;SDS011;30275;51.822;-0.326;2022-11-03T02:45:38;9.30;;;2.92;;
44564;SDS011;30275;51.822;-0.326;2022-11-03T02:48:05;11.35;;;5.15;;
44564;SDS011;30275;51.822;-0.326;2022-11-03T02:50:32;13.15;;;2.58;;
44564;SDS011;30275;51.822;-0.326;2022-11-03T02:52:59;9.35;;;2.33;;
44564;SDS011;30275;51.822;-0.326;2022-11-03T02:55:36;9.07;;;2.42;;
44564;SDS011;30275;51.822;-0.326;2022-11-03T02:58:28;9.35;;;2.20;;
44564;SDS011;30275;51.822;-0.326;2022-11-03T03:01:08;11.93;;;3.00;;
44564;SDS011;30275;51.822;-0.326;2022-11-03T03:04:04;9.55;;;2.40;;
44564;SDS011;30275;51.822;-0.326;2022-11-03T03:06:33;5.78;;;2.35;;
44564;SDS011;30275;51.822;-0.326;2022-11-03T03:09:03;8.80;;;1.90;;
44564;SDS011;30275;51.822;-0.326;2022-11-03T03:11:35;10.90;;;2.53;;
44564;SDS011;30275;51.822;-0.326;2022-11-03T03:16:48;12.15;;;3.10;;
44564;SDS011;30275;51.822;-0.326;2022-11-03T03:22:50;10.18;;;2.85;;
44564;SDS011;30275;51.822;-0.326;2022-11-03T03:27:45;7.78;;;2.42;;
44564;SDS011;30275;51.822;-0.326;2022-11-03T03:30:14;10.10;;;2.22;;
44564;SDS011;30275;51.822;-0.326;2022-11-03T03:32:43;10.60;;;2.63;;
44564;SDS011;30275;51.822;-0.326;2022-11-03T03:35:21;10.80;;;2.03;;
44564;SDS011;30275;51.822;-0.326;2022-11-03T03:37:50;7.95;;;1.92;;
44564;SDS011;30275;51.822;-0.326;2022-11-03T03:40:21;11.50;;;2.10;;
44564;SDS011;30275;51.822;-0.326;2022-11-03T03:42:51;11.80;;;2.30;;
44564;SDS011;30275;51.822;-0.326;2022-11-03T03:45:18;12.45;;;1.70;;
44564;SDS011;30275;51.822;-0.326;2022-11-03T03:47:44;9.80;;;2.20;;
44564;SDS011;30275;51.822;-0.326;2022-11-03T03:50:11;11.02;;;1.75;;
44564;SDS011;30275;51.822;-0.326;2022-11-03T03:52:37;10.77;;;2.67;;
44564;SDS011;30275;51.822;-0.326;2022-11-03T03:55:03;11.43;;;2.50;;
44564;SDS011;30275;51.822;-0.326;2022-11-03T03:57:36;6.82;;;1.73;;
44564;SDS011;30275;51.822;-0.326;2022-11-03T04:00:02;6.53;;;2.65;;
44564;SDS011;30275;51.822;-0.326;2022-11-03T04:02:28;5.05;;;1.48;;
44564;SDS011;30275;51.822;-0.326;2022-11-03T04:04:57;10.45;;;1.80;;
44564;SDS011;30275;51.822;-0.326;2022-11-03T04:07:23;5.90;;;2.30;;
44564;SDS011;30275;51.822;-0.326;2022-11-03T04:10:07;4.90;;;1.55;;
44564;SDS011;30275;51.822;-0.326;2022-11-03T04:12:33;5.40;;;1.55;;
44564;SDS011;30275;51.822;-0.326;2022-11-03T04:15:17;6.18;;;1.73;;
44564;SDS011;30275;51.822;-0.326;2022-11-03T04:18:01;6.43;;;1.45;;
44564;SDS011;30275;51.822;-0.326;2022-11-03T04:20:45;6.10;;;1.70;;
44564;SDS011;30275;51.822;-0.326;2022-11-03T04:23:29;3.40;;;1.30;;
44564;SDS011;30275;51.822;-0.326;2022-11-03T04:25:55;6.78;;;1.67;;
44564;SDS011;30275;51.822;-0.326;2022-11-03T04:28:22;5.80;;;1.60;;
44564;SDS011;30275;51.822;-0.326;2022-11-03T04:30:49;6.28;;;1.50;;
44564;SDS011;30275;51.822;-0.326;2022-11-03T04:33:15;2.67;;;1.30;;
44564;SDS011;30275;51.822;-0.326;2022-11-03T04:35:43;6.10;;;1.50;;
44564;SDS011;30275;51.822;-0.326;2022-11-03T04:40:43;4.70;;;1.33;;
44564;SDS011;30275;51.822;-0.326;2022-11-03T04:43:14;3.88;;;1.08;;
44564;SDS011;30275;51.822;-0.326;2022-11-03T04:45:41;5.47;;;1.50;;
44564;SDS011;30275;51.822;-0.326;2022-11-03T04:48:12;3.03;;;1.42;;
44564;SDS011;30275;51.822;-0.326;2022-11-03T04:50:42;2.30;;;1.13;;
44564;SDS011;30275;51.822;-0.326;2022-11-03T04:53:12;4.32;;;1.27;;
44564;SDS011;30275;51.822;-0.326;2022-11-03T04:55:40;6.40;;;2.03;;
44564;SDS011;30275;51.822;-0.326;2022-11-03T04:58:09;6.00;;;1.40;;
44564;SDS011;30275;51.822;-0.326;2022-11-03T05:00:37;3.75;;;1.40;;
44564;SDS011;30275;51.822;-0.326;2022-11-03T05:03:03;4.80;;;1.33;;
44564;SDS011;30275;51.822;-0.326;2022-11-03T05:05:29;7.28;;;2.17;;
44564;SDS011;30275;51.822;-0.326;2022-11-03T05:07:55;3.80;;;1.50;;
44564;SDS011;30275;51.822;-0.326;2022-11-03T05:10:26;3.05;;;1.20;;
44564;SDS011;30275;51.822;-0.326;2022-11-03T05:12:54;3.97;;;1.27;;
44564;SDS011;30275;51.822;-0.326;2022-11-03T05:19:02;3.05;;;1.35;;
44564;SDS011;30275;51.822;-0.326;2022-11-03T05:21:13;1.95;;;1.00;;
44564;SDS011;30275;51.822;-0.326;2022-11-03T05:23:49;2.92;;;1.20;;
44564;SDS011;30275;51.822;-0.326;2022-11-03T05:26:17;4.65;;;1.08;;
44564;SDS011;30275;51.822;-0.326;2022-11-03T05:28:52;1.98;;;0.90;;
44564;SDS011;30275;51.822;-0.326;2022-11-03T05:31:27;2.58;;;1.10;;
44564;SDS011;30275;51.822;-0.326;2022-11-03T05:33:57;3.13;;;1.35;;
44564;SDS011;30275;51.822;-0.326;2022-11-03T05:36:44;1.65;;;0.80;;
44564;SDS011;30275;51.822;-0.326;2022-11-03T05:41:59;5.25;;;1.30;;
44564;SDS011;30275;51.822;-0.326;2022-11-03T05:47:13;1.65;;;0.80;;
44564;SDS011;30275;51.822;-0.326;2022-11-03T05:49:47;3.55;;;1.20;;
44564;SDS011;30275;51.822;-0.326;2022-11-03T05:52:21;1.77;;;0.90;;
44564;SDS011;30275;51.822;-0.326;2022-11-03T05:54:50;3.33;;;1.00;;
44564;SDS011;30275;51.822;-0.326;2022-11-03T05:57:17;4.63;;;1.63;;
44564;SDS011;30275;51.822;-0.326;2022-11-03T05:59:44;4.15;;;1.38;;
44564;SDS011;30275;51.822;-0.326;2022-11-03T06:02:31;4.63;;;1.63;;
44564;SDS011;30275;51.822;-0.326;2022-11-03T06:05:24;10.13;;;2.13;;
44564;SDS011;30275;51.822;-0.326;2022-11-03T06:07:50;14.55;;;3.15;;
44564;SDS011;30275;51.822;-0.326;2022-11-03T06:10:51;13.00;;;2.40;;
44564;SDS011;30275;51.822;-0.326;2022-11-03T06:13:13;9.82;;;2.28;;
44564;SDS011;30275;51.822;-0.326;2022-11-03T06:15:44;8.97;;;2.37;;
44564;SDS011;30275;51.822;-0.326;2022-11-03T06:18:13;12.50;;;2.45;;
44564;SDS011;30275;51.822;-0.326;2022-11-03T06:20:43;10.60;;;2.25;;
44564;SDS011;30275;51.822;-0.326;2022-11-03T06:23:22;9.88;;;2.72;;
44564;SDS011;30275;51.822;-0.326;2022-11-03T06:25:49;8.43;;;2.40;;
44564;SDS011;30275;51.822;-0.326;2022-11-03T06:28:32;7.72;;;2.35;;
44564;SDS011;30275;51.822;-0.326;2022-11-03T06:31:13;13.27;;;3.58;;
44564;SDS011;30275;51.822;-0.326;2022-11-03T06:33:45;10.32;;;1.92;;
44564;SDS011;30275;51.822;-0.326;2022-11-03T06:36:15;9.63;;;1.92;;
44564;SDS011;30275;51.822;-0.326;2022-11-03T06:38:43;8.43;;;2.40;;
44564;SDS011;30275;51.822;-0.326;2022-11-03T06:41:18;10.90;;;2.45;;
44564;SDS011;30275;51.822;-0.326;2022-11-03T06:43:48;9.60;;;2.20;;
44564;SDS011;30275;51.822;-0.326;2022-11-03T06:46:17;7.00;;;2.00;;
44564;SDS011;30275;51.822;-0.326;2022-11-03T06:48:54;8.93;;;3.25;;
44564;SDS011;30275;51.822;-0.326;2022-11-03T06:51:23;10.10;;;3.38;;
44564;SDS011;30275;51.822;-0.326;2022-11-03T06:53:52;8.93;;;2.20;;
44564;SDS011;30275;51.822;-0.326;2022-11-03T06:56:23;7.68;;;2.20;;
44564;SDS011;30275;51.822;-0.326;2022-11-03T06:58:52;7.75;;;2.30;;
44564;SDS011;30275;51.822;-0.326;2022-11-03T07:01:24;6.13;;;1.80;;
44564;SDS011;30275;51.822;-0.326;2022-11-03T07:03:57;6.35;;;2.15;;
44564;SDS011;30275;51.822;-0.326;2022-11-03T07:06:27;10.45;;;2.13;;
44564;SDS011;30275;51.822;-0.326;2022-11-03T07:08:59;8.52;;;2.70;;
44564;SDS011;30275;51.822;-0.326;2022-11-03T07:11:29;6.18;;;2.20;;
44564;SDS011;30275;51.822;-0.326;2022-11-03T07:14:01;7.97;;;1.95;;
44564;SDS011;30275;51.822;-0.326;2022-11-03T07:16:55;7.85;;;2.05;;
44564;SDS011;30275;51.822;-0.326;2022-11-03T07:19:26;10.43;;;1.85;;
44564;SDS011;30275;51.822;-0.326;2022-11-03T07:21:57;6.28;;;2.03;;
44564;SDS011;30275;51.822;-0.326;2022-11-03T07:24:31;10.10;;;2.75;;
44564;SDS011;30275;51.822;-0.326;2022-11-03T07:29:43;7.63;;;2.20;;
44564;SDS011;30275;51.822;-0.326;2022-11-03T07:32:17;10.73;;;1.90;;
44564;SDS011;30275;51.822;-0.326;2022-11-03T07:34:44;8.60;;;1.92;;
44564;SDS011;30275;51.822;-0.326;2022-11-03T07:37:15;7.75;;;2.15;;
44564;SDS011;30275;51.822;-0.326;2022-11-03T07:39:44;8.85;;;2.33;;
44564;SDS011;30275;51.822;-0.326;2022-11-03T07:42:12;9.77;;;2.05;;
44564;SDS011;30275;51.822;-0.326;2022-11-03T07:44:43;8.70;;;2.95;;
44564;SDS011;30275;51.822;-0.326;2022-11-03T07:47:10;9.02;;;2.45;;
44564;SDS011;30275;51.822;-0.326;2022-11-03T07:50:05;10.60;;;2.50;;
44564;SDS011;30275;51.822;-0.326;2022-11-03T07:52:38;8.30;;;2.88;;
44564;SDS011;30275;51.822;-0.326;2022-11-03T07:55:08;6.25;;;1.98;;
44564;SDS011;30275;51.822;-0.326;2022-11-03T07:57:37;9.43;;;1.92;;
44564;SDS011;30275;51.822;-0.326;2022-11-03T08:00:04;9.88;;;2.85;;
44564;SDS011;30275;51.822;-0.326;2022-11-03T08:05:00;6.85;;;2.22;;
44564;SDS011;30275;51.822;-0.326;2022-11-03T08:07:26;16.75;;;3.75;;
44564;SDS011;30275;51.822;-0.326;2022-11-03T08:09:53;10.27;;;3.08;;
44564;SDS011;30275;51.822;-0.326;2022-11-03T08:12:19;9.07;;;2.20;;
44564;SDS011;30275;51.822;-0.326;2022-11-03T08:14:45;7.57;;;2.50;;
44564;SDS011;30275;51.822;-0.326;2022-11-03T08:17:11;11.45;;;2.92;;
44564;SDS011;30275;51.822;-0.326;2022-11-03T08:19:38;10.85;;;3.38;;
44564;SDS011;30275;51.822;-0.326;2022-11-03T08:22:05;11.57;;;2.83;;
44564;SDS011;30275;51.822;-0.326;2022-11-03T08:24:31;7.75;;;2.97;;
44564;SDS011;30275;51.822;-0.326;2022-11-03T08:26:57;10.88;;;2.45;;
44564;SDS011;30275;51.822;-0.326;2022-11-03T08:29:23;8.27;;;2.35;;
44564;SDS011;30275;51.822;-0.326;2022-11-03T08:31:54;10.05;;;2.50;;
44564;SDS011;30275;51.822;-0.326;2022-11-03T08:34:19;11.95;;;2.25;;
44564;SDS011;30275;51.822;-0.326;2022-11-03T08:36:45;7.88;;;2.10;;
44564;SDS011;30275;51.822;-0.326;2022-11-03T08:39:11;7.50;;;2.55;;
44564;SDS011;30275;51.822;-0.326;2022-11-03T08:41:37;8.73;;;2.13;;
44564;SDS011;30275;51.822;-0.326;2022-11-03T08:44:03;9.55;;;3.05;;
44564;SDS011;30275;51.822;-0.326;2022-11-03T08:46:29;12.95;;;2.58;;
44564;SDS011;30275;51.822;-0.326;2022-11-03T08:48:55;9.10;;;2.53;;
44564;SDS011;30275;51.822;-0.326;2022-11-03T08:51:21;10.88;;;2.70;;
44564;SDS011;30275;51.822;-0.326;2022-11-03T08:53:47;10.40;;;2.47;;
44564;SDS011;30275;51.822;-0.326;2022-11-03T08:56:18;7.55;;;2.33;;
44564;SDS011;30275;51.822;-0.326;2022-11-03T08:58:44;6.88;;;2.20;;
44564;SDS011;30275;51.822;-0.326;2022-11-03T09:01:10;10.90;;;2.38;;
44564;SDS011;30275;51.822;-0.326;2022-11-03T09:03:37;9.30;;;2.20;;
44564;SDS011;30275;51.822;-0.326;2022-11-03T09:06:03;6.60;;;1.80;;
44564;SDS011;30275;51.822;-0.326;2022-11-03T09:08:29;11.07;;;3.33;;
44564;SDS011;30275;51.822;-0.326;2022-11-03T09:10:55;8.70;;;2.47;;
44564;SDS011;30275;51.822;-0.326;2022-11-03T09:13:21;10.02;;;2.13;;
44564;SDS011;30275;51.822;-0.326;2022-11-03T09:15:46;7.47;;;2.80;;
44564;SDS011;30275;51.822;-0.326;2022-11-03T09:18:12;7.65;;;2.28;;
44564;SDS011;30275;51.822;-0.326;2022-11-03T09:20:38;8.27;;;2.22;;
44564;SDS011;30275;51.822;-0.326;2022-11-03T09:23:04;7.82;;;2.03;;
44564;SDS011;30275;51.822;-0.326;2022-11-03T09:25:30;8.30;;;2.22;;
44564;SDS011;30275;51.822;-0.326;2022-11-03T09:27:55;10.70;;;2.25;;
44564;SDS011;30275;51.822;-0.326;2022-11-03T09:30:21;7.63;;;2.30;;
44564;SDS011;30275;51.822;-0.326;2022-11-03T09:32:47;7.80;;;2.50;;
44564;SDS011;30275;51.822;-0.326;2022-11-03T09:35:13;8.68;;;3.03;;
44564;SDS011;30275;51.822;-0.326;2022-11-03T09:37:39;9.15;;;2.60;;
44564;SDS011;30275;51.822;-0.326;2022-11-03T09:40:05;9.77;;;2.47;;
44564;SDS011;30275;51.822;-0.326;2022-11-03T09:42:32;9.18;;;2.55;;
44564;SDS011;30275;51.822;-0.326;2022-11-03T09:44:58;9.57;;;3.15;;
44564;SDS011;30275;51.822;-0.326;2022-11-03T09:47:32;9.02;;;2.53;;
44564;SDS011;30275;51.822;-0.326;2022-11-03T09:50:00;10.10;;;2.55;;
44564;SDS011;30275;51.822;-0.326;2022-11-03T09:52:26;13.82;;;2.67;;
44564;SDS011;30275;51.822;-0.326;2022-11-03T09:54:53;7.35;;;2.28;;
44564;SDS011;30275;51.822;-0.326;2022-11-03T09:57:25;7.50;;;2.35;;
44564;SDS011;30275;51.822;-0.326;2022-11-03T09:59:51;14.25;;;2.40;;
44564;SDS011;30275;51.822;-0.326;2022-11-03T10:02:25;9.80;;;2.42;;
44564;SDS011;30275;51.822;-0.326;2022-11-03T10:04:55;13.50;;;4.20;;
44564;SDS011;30275;51.822;-0.326;2022-11-03T10:07:24;8.88;;;2.15;;
44564;SDS011;30275;51.822;-0.326;2022-11-03T10:09:53;5.32;;;1.88;;
44564;SDS011;30275;51.822;-0.326;2022-11-03T10:12:22;7.95;;;2.25;;
44564;SDS011;30275;51.822;-0.326;2022-11-03T10:14:49;9.35;;;2.38;;
44564;SDS011;30275;51.822;-0.326;2022-11-03T10:17:16;10.48;;;1.98;;
44564;SDS011;30275;51.822;-0.326;2022-11-03T10:19:47;7.25;;;2.22;;
44564;SDS011;30275;51.822;-0.326;2022-11-03T10:22:15;8.65;;;2.00;;
44564;SDS011;30275;51.822;-0.326;2022-11-03T10:24:42;6.90;;;2.50;;
44564;SDS011;30275;51.822;-0.326;2022-11-03T10:27:21;4.65;;;2.05;;
44564;SDS011;30275;51.822;-0.326;2022-11-03T10:30:07;5.90;;;1.40;;
44564;SDS011;30275;51.822;-0.326;2022-11-03T10:32:34;3.95;;;1.52;;
44564;SDS011;30275;51.822;-0.326;2022-11-03T10:35:00;4.35;;;1.55;;
44564;SDS011;30275;51.822;-0.326;2022-11-03T10:37:28;5.95;;;2.03;;
44564;SDS011;30275;51.822;-0.326;2022-11-03T10:39:54;6.03;;;2.13;;
44564;SDS011;30275;51.822;-0.326;2022-11-03T10:42:23;7.85;;;2.35;;
44564;SDS011;30275;51.822;-0.326;2022-11-03T10:44:51;6.32;;;1.80;;
44564;SDS011;30275;51.822;-0.326;2022-11-03T10:47:35;6.65;;;1.92;;
44564;SDS011;30275;51.822;-0.326;2022-11-03T10:50:10;7.57;;;2.05;;
44564;SDS011;30275;51.822;-0.326;2022-11-03T10:52:48;5.90;;;1.40;;
44564;SDS011;30275;51.822;-0.326;2022-11-03T10:55:14;5.15;;;1.63;;
44564;SDS011;30275;51.822;-0.326;2022-11-03T10:57:41;5.22;;;2.70;;
44564;SDS011;30275;51.822;-0.326;2022-11-03T11:00:11;7.43;;;2.13;;
44564;SDS011;30275;51.822;-0.326;2022-11-03T11:02:39;5.22;;;2.28;;
44564;SDS011;30275;51.822;-0.326;2022-11-03T11:07:45;4.25;;;1.67;;
44564;SDS011;30275;51.822;-0.326;2022-11-03T11:12:37;6.55;;;1.95;;
44564;SDS011;30275;51.822;-0.326;2022-11-03T11:15:34;5.63;;;1.75;;
44564;SDS011;30275;51.822;-0.326;2022-11-03T11:18:03;3.95;;;1.30;;
44564;SDS011;30275;51.822;-0.326;2022-11-03T11:20:33;6.30;;;1.38;;
44564;SDS011;30275;51.822;-0.326;2022-11-03T11:28:43;4.90;;;1.50;;
44564;SDS011;30275;51.822;-0.326;2022-11-03T11:36:44;3.20;;;1.50;;
44564;SDS011;30275;51.822;-0.326;2022-11-03T12:00:49;4.35;;;1.30;;
44564;SDS011;30275;51.822;-0.326;2022-11-03T12:03:25;3.13;;;1.33;;
44564;SDS011;30275;51.822;-0.326;2022-11-03T12:06:03;3.88;;;1.48;;
44564;SDS011;30275;51.822;-0.326;2022-11-03T12:08:29;6.03;;;1.50;;
44564;SDS011;30275;51.822;-0.326;2022-11-03T12:11:05;3.90;;;1.52;;
44564;SDS011;30275;51.822;-0.326;2022-11-03T12:16:03;3.45;;;1.23;;
44564;SDS011;30275;51.822;-0.326;2022-11-03T12:21:06;2.95;;;1.90;;
44564;SDS011;30275;51.822;-0.326;2022-11-03T12:26:12;5.43;;;1.40;;
44564;SDS011;30275;51.822;-0.326;2022-11-03T12:28:38;6.35;;;2.65;;
44564;SDS011;30275;51.822;-0.326;2022-11-03T12:31:04;7.95;;;3.50;;
44564;SDS011;30275;51.822;-0.326;2022-11-03T12:33:29;4.10;;;1.60;;
44564;SDS011;30275;51.822;-0.326;2022-11-03T12:35:55;3.70;;;1.27;;
44564;SDS011;30275;51.822;-0.326;2022-11-03T12:38:22;4.35;;;1.33;;
44564;SDS011;30275;51.822;-0.326;2022-11-03T12:40:48;3.72;;;1.33;;
44564;SDS011;30275;51.822;-0.326;2022-11-03T12:43:14;4.35;;;1.35;;
44564;SDS011;30275;51.822;-0.326;2022-11-03T12:45:40;6.65;;;1.45;;
44564;SDS011;30275;51.822;-0.326;2022-11-03T12:48:06;3.53;;;1.17;;
44564;SDS011;30275;51.822;-0.326;2022-11-03T12:50:32;6.25;;;1.83;;
44564;SDS011;30275;51.822;-0.326;2022-11-03T12:52:58;4.07;;;1.50;;
44564;SDS011;30275;51.822;-0.326;2022-11-03T12:55:24;4.82;;;1.60;;
44564;SDS011;30275;51.822;-0.326;2022-11-03T12:57:49;5.20;;;1.50;;
44564;SDS011;30275;51.822;-0.326;2022-11-03T13:00:15;5.53;;;1.60;;
44564;SDS011;30275;51.822;-0.326;2022-11-03T13:02:41;3.90;;;1.20;;
44564;SDS011;30275;51.822;-0.326;2022-11-03T13:05:07;2.63;;;2.10;;
44564;SDS011;30275;51.822;-0.326;2022-11-03T13:07:33;1.85;;;1.35;;
44564;SDS011;30275;51.822;-0.326;2022-11-03T13:09:58;4.63;;;1.50;;
44564;SDS011;30275;51.822;-0.326;2022-11-03T13:12:24;3.72;;;1.38;;
44564;SDS011;30275;51.822;-0.326;2022-11-03T13:14:56;3.20;;;1.17;;
44564;SDS011;30275;51.822;-0.326;2022-11-03T13:17:23;3.78;;;1.30;;
44564;SDS011;30275;51.822;-0.326;2022-11-03T13:19:50;3.40;;;1.45;;
44564;SDS011;30275;51.822;-0.326;2022-11-03T13:22:15;3.80;;;1.40;;
44564;SDS011;30275;51.822;-0.326;2022-11-03T13:24:41;2.53;;;1.27;;
44564;SDS011;30275;51.822;-0.326;2022-11-03T13:27:07;3.20;;;1.42;;
44564;SDS011;30275;51.822;-0.326;2022-11-03T13:29:32;5.05;;;1.40;;
44564;SDS011;30275;51.822;-0.326;2022-11-03T13:31:58;3.20;;;1.70;;
44564;SDS011;30275;51.822;-0.326;2022-11-03T13:34:24;3.50;;;1.30;;
44564;SDS011;30275;51.822;-0.326;2022-11-03T13:36:49;2.25;;;1.30;;
44564;SDS011;30275;51.822;-0.326;2022-11-03T13:39:15;3.60;;;1.60;;
44564;SDS011;30275;51.822;-0.326;2022-11-03T13:41:41;6.47;;;1.27;;
44564;SDS011;30275;51.822;-0.326;2022-11-03T13:44:06;3.70;;;1.42;;
44564;SDS011;30275;51.822;-0.326;2022-11-03T13:46:32;4.82;;;1.63;;
44564;SDS011;30275;51.822;-0.326;2022-11-03T13:48:58;3.42;;;1.65;;
44564;SDS011;30275;51.822;-0.326;2022-11-03T13:51:24;4.45;;;2.00;;
44564;SDS011;30275;51.822;-0.326;2022-11-03T13:53:49;3.85;;;1.80;;
44564;SDS011;30275;51.822;-0.326;2022-11-03T13:56:15;3.15;;;1.77;;
44564;SDS011;30275;51.822;-0.326;2022-11-03T13:58:41;3.92;;;1.55;;
44564;SDS011;30275;51.822;-0.326;2022-11-03T14:01:06;3.40;;;1.63;;
44564;SDS011;30275;51.822;-0.326;2022-11-03T14:03:32;5.05;;;2.00;;
44564;SDS011;30275;51.822;-0.326;2022-11-03T14:05:58;3.60;;;2.00;;
44564;SDS011;30275;51.822;-0.326;2022-11-03T14:08:23;5.30;;;2.45;;
44564;SDS011;30275;51.822;-0.326;2022-11-03T14:10:49;5.07;;;2.83;;
44564;SDS011;30275;51.822;-0.326;2022-11-03T14:13:15;4.20;;;2.40;;
44564;SDS011;30275;51.822;-0.326;2022-11-03T14:15:40;4.88;;;2.95;;
44564;SDS011;30275;51.822;-0.326;2022-11-03T14:18:06;4.72;;;2.90;;
44564;SDS011;30275;51.822;-0.326;2022-11-03T14:20:32;4.95;;;3.03;;
44564;SDS011;30275;51.822;-0.326;2022-11-03T14:22:57;5.13;;;2.33;;
44564;SDS011;30275;51.822;-0.326;2022-11-03T14:25:23;5.75;;;2.22;;
44564;SDS011;30275;51.822;-0.326;2022-11-03T14:27:48;5.20;;;2.40;;
44564;SDS011;30275;51.822;-0.326;2022-11-03T14:30:14;5.00;;;1.45;;
44564;SDS011;30275;51.822;-0.326;2022-11-03T14:32:40;1.83;;;1.15;;
44564;SDS011;30275;51.822;-0.326;2022-11-03T14:35:06;4.32;;;1.27;;
44564;SDS011;30275;51.822;-0.326;2022-11-03T14:37:32;3.15;;;1.33;;
44564;SDS011;30275;51.822;-0.326;2022-11-03T14:39:57;4.28;;;1.08;;
44564;SDS011;30275;51.822;-0.326;2022-11-03T14:42:23;3.55;;;1.30;;
44564;SDS011;30275;51.822;-0.326;2022-11-03T14:44:48;3.05;;;1.08;;
44564;SDS011;30275;51.822;-0.326;2022-11-03T14:47:15;2.15;;;0.80;;
44564;SDS011;30275;51.822;-0.326;2022-11-03T14:49:42;2.92;;;1.00;;
44564;SDS011;30275;51.822;-0.326;2022-11-03T14:52:08;2.05;;;1.02;;
44564;SDS011;30275;51.822;-0.326;2022-11-03T14:54:34;2.47;;;0.88;;
44564;SDS011;30275;51.822;-0.326;2022-11-03T14:57:00;3.60;;;1.02;;
44564;SDS011;30275;51.822;-0.326;2022-11-03T14:59:26;1.42;;;0.90;;
44564;SDS011;30275;51.822;-0.326;2022-11-03T15:01:52;4.00;;;1.40;;
44564;SDS011;30275;51.822;-0.326;2022-11-03T15:04:18;3.08;;;1.17;;
44564;SDS011;30275;51.822;-0.326;2022-11-03T15:06:45;5.30;;;1.95;;
44564;SDS011;30275;51.822;-0.326;2022-11-03T15:09:11;5.25;;;1.40;;
44564;SDS011;30275;51.822;-0.326;2022-11-03T15:11:38;2.15;;;1.13;;
44564;SDS011;30275;51.822;-0.326;2022-11-03T15:14:04;2.90;;;1.20;;
44564;SDS011;30275;51.822;-0.326;2022-11-03T15:16:30;3.35;;;1.40;;
44564;SDS011;30275;51.822;-0.326;2022-11-03T15:18:56;2.33;;;1.38;;
44564;SDS011;30275;51.822;-0.326;2022-11-03T15:21:23;3.53;;;1.23;;
44564;SDS011;30275;51.822;-0.326;2022-11-03T15:23:48;4.15;;;1.65;;
44564;SDS011;30275;51.822;-0.326;2022-11-03T15:26:14;4.10;;;2.35;;
44564;SDS011;30275;51.822;-0.326;2022-11-03T15:28:40;4.45;;;1.30;;
44564;SDS011;30275;51.822;-0.326;2022-11-03T15:31:06;6.97;;;1.70;;
44564;SDS011;30275;51.822;-0.326;2022-11-03T15:33:32;3.15;;;1.23;;
44564;SDS011;30275;51.822;-0.326;2022-11-03T15:35:58;3.95;;;1.40;;
44564;SDS011;30275;51.822;-0.326;2022-11-03T15:38:24;4.85;;;1.08;;
44564;SDS011;30275;51.822;-0.326;2022-11-03T15:40:49;2.65;;;1.08;;
44564;SDS011;30275;51.822;-0.326;2022-11-03T15:43:15;3.13;;;1.50;;
44564;SDS011;30275;51.822;-0.326;2022-11-03T15:45:41;2.92;;;1.50;;
44564;SDS011;30275;51.822;-0.326;2022-11-03T15:48:06;2.25;;;1.30;;
44564;SDS011;30275;51.822;-0.326;2022-11-03T15:50:32;2.53;;;1.15;;
44564;SDS011;30275;51.822;-0.326;2022-11-03T15:52:57;5.93;;;1.60;;
44564;SDS011;30275;51.822;-0.326;2022-11-03T15:55:23;5.38;;;1.30;;
44564;SDS011;30275;51.822;-0.326;2022-11-03T15:57:49;5.07;;;1.45;;
44564;SDS011;30275;51.822;-0.326;2022-11-03T16:00:15;3.58;;;1.30;;
44564;SDS011;30275;51.822;-0.326;2022-11-03T16:02:43;6.82;;;1.70;;
44564;SDS011;30275;51.822;-0.326;2022-11-03T16:05:09;4.60;;;2.90;;